sensor_id;sensor_type;location;lat;lon;timestamp;temperature;humidity
4187;DHT22;2107;52.306;10.484;2023-07-29T00:01:58;17.50;99.90
4187;DHT22;2107;52.306;10.484;2023-07-29T00:04:25;17.50;99.90
4187;DHT22;2107;52.306;10.484;2023-07-29T00:06:51;17.40;99.90
4187;DHT22;2107;52.306;10.484;2023-07-29T00:09:18;17.40;99.90
4187;DHT22;2107;52.306;10.484;2023-07-29T00:11:45;17.40;99.90
4187;DHT22;2107;52.306;10.484;2023-07-29T00:14:13;17.40;99.90
4187;DHT22;2107;52.306;10.484;2023-07-29T00:16:40;17.40;99.90
4187;DHT22;2107;52.306;10.484;2023-07-29T00:19:07;17.30;99.90
4187;DHT22;2107;52.306;10.484;2023-07-29T00:21:34;17.20;99.90
4187;DHT22;2107;52.306;10.484;2023-07-29T00:24:01;17.30;99.90
4187;DHT22;2107;52.306;10.484;2023-07-29T00:26:28;17.30;99.90
4187;DHT22;2107;52.306;10.484;2023-07-29T00:28:55;17.40;99.90
4187;DHT22;2107;52.306;10.484;2023-07-29T00:31:23;17.40;99.90
4187;DHT22;2107;52.306;10.484;2023-07-29T00:33:50;17.40;99.90
4187;DHT22;2107;52.306;10.484;2023-07-29T00:36:18;17.30;99.90
4187;DHT22;2107;52.306;10.484;2023-07-29T00:38:45;17.30;99.90
4187;DHT22;2107;52.306;10.484;2023-07-29T00:41:12;17.30;99.90
4187;DHT22;2107;52.306;10.484;2023-07-29T00:43:40;17.30;99.90
4187;DHT22;2107;52.306;10.484;2023-07-29T00:46:08;17.30;99.90
4187;DHT22;2107;52.306;10.484;2023-07-29T00:48:37;17.30;99.90
4187;DHT22;2107;52.306;10.484;2023-07-29T00:51:04;17.30;99.90
4187;DHT22;2107;52.306;10.484;2023-07-29T00:53:31;17.30;99.90
4187;DHT22;2107;52.306;10.484;2023-07-29T00:55:59;17.30;99.90
4187;DHT22;2107;52.306;10.484;2023-07-29T00:58:26;17.30;99.90
4187;DHT22;2107;52.306;10.484;2023-07-29T01:00:54;17.30;99.90
4187;DHT22;2107;52.306;10.484;2023-07-29T01:03:21;17.30;99.90
4187;DHT22;2107;52.306;10.484;2023-07-29T01:05:59;17.30;99.90
4187;DHT22;2107;52.306;10.484;2023-07-29T01:08:33;17.30;99.90
4187;DHT22;2107;52.306;10.484;2023-07-29T01:11:14;17.30;99.90
4187;DHT22;2107;52.306;10.484;2023-07-29T01:13:52;17.30;99.90
4187;DHT22;2107;52.306;10.484;2023-07-29T01:16:23;17.30;99.90
4187;DHT22;2107;52.306;10.484;2023-07-29T01:18:54;17.30;99.90
4187;DHT22;2107;52.306;10.484;2023-07-29T01:21:25;17.30;99.90
4187;DHT22;2107;52.306;10.484;2023-07-29T01:23:58;17.30;99.90
4187;DHT22;2107;52.306;10.484;2023-07-29T01:26:25;17.30;99.90
4187;DHT22;2107;52.306;10.484;2023-07-29T01:28:54;17.30;99.90
4187;DHT22;2107;52.306;10.484;2023-07-29T01:31:26;17.30;99.90
4187;DHT22;2107;52.306;10.484;2023-07-29T01:33:58;17.30;99.90
4187;DHT22;2107;52.306;10.484;2023-07-29T01:36:28;17.20;99.90
4187;DHT22;2107;52.306;10.484;2023-07-29T01:38:57;17.20;99.90
4187;DHT22;2107;52.306;10.484;2023-07-29T01:41:25;17.30;99.90
4187;DHT22;2107;52.306;10.484;2023-07-29T01:43:53;17.30;99.90
4187;DHT22;2107;52.306;10.484;2023-07-29T01:46:21;17.30;99.90
4187;DHT22;2107;52.306;10.484;2023-07-29T01:48:48;17.40;99.90
4187;DHT22;2107;52.306;10.484;2023-07-29T01:51:14;17.30;99.90
4187;DHT22;2107;52.306;10.484;2023-07-29T01:53:41;17.40;99.90
4187;DHT22;2107;52.306;10.484;2023-07-29T01:56:10;17.40;99.90
4187;DHT22;2107;52.306;10.484;2023-07-29T01:58:36;17.30;99.90
4187;DHT22;2107;52.306;10.484;2023-07-29T02:01:03;17.20;99.90
4187;DHT22;2107;52.306;10.484;2023-07-29T02:03:30;17.20;99.90
4187;DHT22;2107;52.306;10.484;2023-07-29T02:05:57;17.20;99.90
4187;DHT22;2107;52.306;10.484;2023-07-29T02:08:24;17.20;99.90
4187;DHT22;2107;52.306;10.484;2023-07-29T02:10:51;17.20;99.90
4187;DHT22;2107;52.306;10.484;2023-07-29T02:13:19;17.20;99.90
4187;DHT22;2107;52.306;10.484;2023-07-29T02:15:46;17.20;99.90
4187;DHT22;2107;52.306;10.484;2023-07-29T02:18:12;17.20;99.90
4187;DHT22;2107;52.306;10.484;2023-07-29T02:20:39;17.20;99.90
4187;DHT22;2107;52.306;10.484;2023-07-29T02:23:07;17.20;99.90
4187;DHT22;2107;52.306;10.484;2023-07-29T02:25:35;17.20;99.90
4187;DHT22;2107;52.306;10.484;2023-07-29T02:28:02;17.20;99.90
4187;DHT22;2107;52.306;10.484;2023-07-29T02:30:31;17.20;99.90
4187;DHT22;2107;52.306;10.484;2023-07-29T02:32:58;17.20;99.90
4187;DHT22;2107;52.306;10.484;2023-07-29T02:35:26;17.20;99.90
4187;DHT22;2107;52.306;10.484;2023-07-29T02:37:53;17.20;99.90
4187;DHT22;2107;52.306;10.484;2023-07-29T02:40:20;17.20;99.90
4187;DHT22;2107;52.306;10.484;2023-07-29T02:42:48;17.10;99.90
4187;DHT22;2107;52.306;10.484;2023-07-29T02:45:15;17.10;99.90
4187;DHT22;2107;52.306;10.484;2023-07-29T02:47:43;17.00;99.90
4187;DHT22;2107;52.306;10.484;2023-07-29T02:50:10;17.10;99.90
4187;DHT22;2107;52.306;10.484;2023-07-29T02:52:36;17.00;99.90
4187;DHT22;2107;52.306;10.484;2023-07-29T02:55:04;17.00;99.90
4187;DHT22;2107;52.306;10.484;2023-07-29T02:57:31;16.90;99.90
4187;DHT22;2107;52.306;10.484;2023-07-29T02:59:58;16.90;99.90
4187;DHT22;2107;52.306;10.484;2023-07-29T03:02:25;16.90;99.90
4187;DHT22;2107;52.306;10.484;2023-07-29T03:04:53;17.00;99.90
4187;DHT22;2107;52.306;10.484;2023-07-29T03:07:20;17.00;99.90
4187;DHT22;2107;52.306;10.484;2023-07-29T03:09:47;17.10;99.90
4187;DHT22;2107;52.306;10.484;2023-07-29T03:12:13;17.10;99.90
4187;DHT22;2107;52.306;10.484;2023-07-29T03:14:40;17.20;99.90
4187;DHT22;2107;52.306;10.484;2023-07-29T03:17:07;17.20;99.90
4187;DHT22;2107;52.306;10.484;2023-07-29T03:19:34;17.20;99.90
4187;DHT22;2107;52.306;10.484;2023-07-29T03:22:03;17.30;99.90
4187;DHT22;2107;52.306;10.484;2023-07-29T03:24:30;17.30;99.90
4187;DHT22;2107;52.306;10.484;2023-07-29T03:26:56;17.40;99.90
4187;DHT22;2107;52.306;10.484;2023-07-29T03:29:23;17.40;99.90
4187;DHT22;2107;52.306;10.484;2023-07-29T03:31:50;17.40;99.90
4187;DHT22;2107;52.306;10.484;2023-07-29T03:34:17;17.40;99.90
4187;DHT22;2107;52.306;10.484;2023-07-29T03:36:44;17.50;99.90
4187;DHT22;2107;52.306;10.484;2023-07-29T03:39:14;17.50;99.90
4187;DHT22;2107;52.306;10.484;2023-07-29T03:41:41;17.60;99.90
4187;DHT22;2107;52.306;10.484;2023-07-29T03:44:08;17.60;99.90
4187;DHT22;2107;52.306;10.484;2023-07-29T03:46:34;17.60;99.90
4187;DHT22;2107;52.306;10.484;2023-07-29T03:49:01;17.60;99.90
4187;DHT22;2107;52.306;10.484;2023-07-29T03:51:28;17.70;99.90
4187;DHT22;2107;52.306;10.484;2023-07-29T03:53:55;17.70;99.90
4187;DHT22;2107;52.306;10.484;2023-07-29T03:56:23;17.80;99.90
4187;DHT22;2107;52.306;10.484;2023-07-29T03:58:52;17.80;99.90
4187;DHT22;2107;52.306;10.484;2023-07-29T04:01:19;17.90;99.90
4187;DHT22;2107;52.306;10.484;2023-07-29T04:03:46;18.00;99.90
4187;DHT22;2107;52.306;10.484;2023-07-29T04:06:13;18.00;99.90
4187;DHT22;2107;52.306;10.484;2023-07-29T04:08:40;18.10;99.90
4187;DHT22;2107;52.306;10.484;2023-07-29T04:11:07;18.10;99.90
4187;DHT22;2107;52.306;10.484;2023-07-29T04:13:35;18.20;99.90
4187;DHT22;2107;52.306;10.484;2023-07-29T04:16:03;18.10;99.90
4187;DHT22;2107;52.306;10.484;2023-07-29T04:18:30;18.20;99.90
4187;DHT22;2107;52.306;10.484;2023-07-29T04:20:57;18.30;99.90
4187;DHT22;2107;52.306;10.484;2023-07-29T04:23:23;18.30;99.90
4187;DHT22;2107;52.306;10.484;2023-07-29T04:25:50;18.30;99.90
4187;DHT22;2107;52.306;10.484;2023-07-29T04:28:17;18.40;99.90
4187;DHT22;2107;52.306;10.484;2023-07-29T04:30:45;18.40;99.90
4187;DHT22;2107;52.306;10.484;2023-07-29T04:33:12;18.50;99.90
4187;DHT22;2107;52.306;10.484;2023-07-29T04:35:39;18.60;99.90
4187;DHT22;2107;52.306;10.484;2023-07-29T04:38:06;18.60;99.90
4187;DHT22;2107;52.306;10.484;2023-07-29T04:40:33;18.70;99.90
4187;DHT22;2107;52.306;10.484;2023-07-29T04:43:00;18.80;99.90
4187;DHT22;2107;52.306;10.484;2023-07-29T04:45:28;18.80;99.90
4187;DHT22;2107;52.306;10.484;2023-07-29T04:47:56;18.80;99.90
4187;DHT22;2107;52.306;10.484;2023-07-29T04:50:23;18.90;99.90
4187;DHT22;2107;52.306;10.484;2023-07-29T04:52:50;18.90;99.90
4187;DHT22;2107;52.306;10.484;2023-07-29T04:55:18;19.00;99.90
4187;DHT22;2107;52.306;10.484;2023-07-29T04:57:45;19.00;99.90
4187;DHT22;2107;52.306;10.484;2023-07-29T05:00:12;19.10;99.90
4187;DHT22;2107;52.306;10.484;2023-07-29T05:02:39;19.20;99.90
4187;DHT22;2107;52.306;10.484;2023-07-29T05:05:07;19.20;99.90
4187;DHT22;2107;52.306;10.484;2023-07-29T05:07:34;19.30;99.90
4187;DHT22;2107;52.306;10.484;2023-07-29T05:10:01;19.30;99.90
4187;DHT22;2107;52.306;10.484;2023-07-29T05:12:28;19.40;99.90
4187;DHT22;2107;52.306;10.484;2023-07-29T05:14:55;19.40;99.90
4187;DHT22;2107;52.306;10.484;2023-07-29T05:17:22;19.70;99.90
4187;DHT22;2107;52.306;10.484;2023-07-29T05:19:49;19.80;99.90
4187;DHT22;2107;52.306;10.484;2023-07-29T05:22:17;20.00;99.90
4187;DHT22;2107;52.306;10.484;2023-07-29T05:24:44;20.20;99.90
4187;DHT22;2107;52.306;10.484;2023-07-29T05:27:11;20.20;99.90
4187;DHT22;2107;52.306;10.484;2023-07-29T05:29:38;20.10;99.90
4187;DHT22;2107;52.306;10.484;2023-07-29T05:32:05;19.90;99.90
4187;DHT22;2107;52.306;10.484;2023-07-29T05:34:32;20.00;99.90
4187;DHT22;2107;52.306;10.484;2023-07-29T05:36:59;20.00;99.90
4187;DHT22;2107;52.306;10.484;2023-07-29T05:39:27;20.00;99.90
4187;DHT22;2107;52.306;10.484;2023-07-29T05:41:54;20.10;99.90
4187;DHT22;2107;52.306;10.484;2023-07-29T05:44:21;20.00;99.90
4187;DHT22;2107;52.306;10.484;2023-07-29T05:46:47;20.10;99.90
4187;DHT22;2107;52.306;10.484;2023-07-29T05:49:14;20.30;99.90
4187;DHT22;2107;52.306;10.484;2023-07-29T05:51:41;20.20;99.90
4187;DHT22;2107;52.306;10.484;2023-07-29T05:54:08;20.50;99.90
4187;DHT22;2107;52.306;10.484;2023-07-29T05:56:36;20.20;99.90
4187;DHT22;2107;52.306;10.484;2023-07-29T05:59:03;19.90;99.90
4187;DHT22;2107;52.306;10.484;2023-07-29T06:01:30;19.60;99.90
4187;DHT22;2107;52.306;10.484;2023-07-29T06:03:57;19.40;99.90
4187;DHT22;2107;52.306;10.484;2023-07-29T06:06:23;19.20;99.90
4187;DHT22;2107;52.306;10.484;2023-07-29T06:08:50;19.10;99.90
4187;DHT22;2107;52.306;10.484;2023-07-29T06:11:17;19.00;99.90
4187;DHT22;2107;52.306;10.484;2023-07-29T06:13:46;18.80;99.90
4187;DHT22;2107;52.306;10.484;2023-07-29T06:16:13;18.70;99.90
4187;DHT22;2107;52.306;10.484;2023-07-29T06:18:41;18.70;99.90
4187;DHT22;2107;52.306;10.484;2023-07-29T06:21:07;18.60;99.90
4187;DHT22;2107;52.306;10.484;2023-07-29T06:23:37;18.50;99.90
4187;DHT22;2107;52.306;10.484;2023-07-29T06:26:04;18.50;99.90
4187;DHT22;2107;52.306;10.484;2023-07-29T06:28:32;18.50;99.90
4187;DHT22;2107;52.306;10.484;2023-07-29T06:31:01;18.50;99.90
4187;DHT22;2107;52.306;10.484;2023-07-29T06:33:27;18.50;99.90
4187;DHT22;2107;52.306;10.484;2023-07-29T06:35:54;18.30;99.90
4187;DHT22;2107;52.306;10.484;2023-07-29T06:38:21;18.30;99.90
4187;DHT22;2107;52.306;10.484;2023-07-29T06:40:48;18.40;99.90
4187;DHT22;2107;52.306;10.484;2023-07-29T06:43:15;18.30;99.90
4187;DHT22;2107;52.306;10.484;2023-07-29T06:45:42;18.30;99.90
4187;DHT22;2107;52.306;10.484;2023-07-29T06:48:10;18.40;99.90
4187;DHT22;2107;52.306;10.484;2023-07-29T06:50:37;18.50;99.90
4187;DHT22;2107;52.306;10.484;2023-07-29T06:53:04;18.50;99.90
4187;DHT22;2107;52.306;10.484;2023-07-29T06:55:30;18.50;99.90
4187;DHT22;2107;52.306;10.484;2023-07-29T06:57:57;18.50;99.90
4187;DHT22;2107;52.306;10.484;2023-07-29T07:00:24;18.30;99.90
4187;DHT22;2107;52.306;10.484;2023-07-29T07:02:51;18.20;99.90
4187;DHT22;2107;52.306;10.484;2023-07-29T07:05:19;18.30;99.90
4187;DHT22;2107;52.306;10.484;2023-07-29T07:07:46;18.30;99.90
4187;DHT22;2107;52.306;10.484;2023-07-29T07:10:13;18.30;99.90
4187;DHT22;2107;52.306;10.484;2023-07-29T07:12:40;18.40;99.90
4187;DHT22;2107;52.306;10.484;2023-07-29T07:15:08;18.40;99.90
4187;DHT22;2107;52.306;10.484;2023-07-29T07:17:35;18.20;99.90
4187;DHT22;2107;52.306;10.484;2023-07-29T07:20:02;18.20;99.90
4187;DHT22;2107;52.306;10.484;2023-07-29T07:22:31;18.20;99.90
4187;DHT22;2107;52.306;10.484;2023-07-29T07:24:58;18.30;99.90
4187;DHT22;2107;52.306;10.484;2023-07-29T07:27:24;18.20;99.90
4187;DHT22;2107;52.306;10.484;2023-07-29T07:29:51;18.30;99.90
4187;DHT22;2107;52.306;10.484;2023-07-29T07:32:18;18.30;99.90
4187;DHT22;2107;52.306;10.484;2023-07-29T07:34:45;18.40;99.90
4187;DHT22;2107;52.306;10.484;2023-07-29T07:37:12;18.40;99.90
4187;DHT22;2107;52.306;10.484;2023-07-29T07:39:40;18.40;99.90
4187;DHT22;2107;52.306;10.484;2023-07-29T07:42:07;18.50;99.90
4187;DHT22;2107;52.306;10.484;2023-07-29T07:44:34;18.50;99.90
4187;DHT22;2107;52.306;10.484;2023-07-29T07:47:00;18.40;99.90
4187;DHT22;2107;52.306;10.484;2023-07-29T07:49:27;18.40;99.90
4187;DHT22;2107;52.306;10.484;2023-07-29T07:51:54;18.40;99.90
4187;DHT22;2107;52.306;10.484;2023-07-29T07:54:21;18.30;99.90
4187;DHT22;2107;52.306;10.484;2023-07-29T07:56:49;18.40;99.90
4187;DHT22;2107;52.306;10.484;2023-07-29T07:59:16;18.50;99.90
4187;DHT22;2107;52.306;10.484;2023-07-29T08:01:43;18.70;99.90
4187;DHT22;2107;52.306;10.484;2023-07-29T08:04:09;18.90;99.90
4187;DHT22;2107;52.306;10.484;2023-07-29T08:06:36;19.20;99.90
4187;DHT22;2107;52.306;10.484;2023-07-29T08:09:03;19.40;99.90
4187;DHT22;2107;52.306;10.484;2023-07-29T08:11:30;19.60;99.90
4187;DHT22;2107;52.306;10.484;2023-07-29T08:13:59;19.60;99.90
4187;DHT22;2107;52.306;10.484;2023-07-29T08:16:26;19.70;99.90
4187;DHT22;2107;52.306;10.484;2023-07-29T08:18:53;19.90;99.90
4187;DHT22;2107;52.306;10.484;2023-07-29T08:21:20;20.30;99.90
4187;DHT22;2107;52.306;10.484;2023-07-29T08:23:47;20.80;99.90
4187;DHT22;2107;52.306;10.484;2023-07-29T08:26:14;20.70;99.90
4187;DHT22;2107;52.306;10.484;2023-07-29T08:28:42;20.60;99.90
4187;DHT22;2107;52.306;10.484;2023-07-29T08:31:10;21.00;99.90
4187;DHT22;2107;52.306;10.484;2023-07-29T08:33:37;21.20;99.90
4187;DHT22;2107;52.306;10.484;2023-07-29T08:36:04;21.40;99.90
4187;DHT22;2107;52.306;10.484;2023-07-29T08:38:31;21.70;99.90
4187;DHT22;2107;52.306;10.484;2023-07-29T08:43:48;21.90;99.90
4187;DHT22;2107;52.306;10.484;2023-07-29T08:46:19;22.10;99.90
4187;DHT22;2107;52.306;10.484;2023-07-29T08:48:46;21.90;99.90
4187;DHT22;2107;52.306;10.484;2023-07-29T08:51:14;22.20;99.90
4187;DHT22;2107;52.306;10.484;2023-07-29T08:53:42;22.30;99.90
4187;DHT22;2107;52.306;10.484;2023-07-29T08:56:09;22.10;99.90
4187;DHT22;2107;52.306;10.484;2023-07-29T08:58:36;22.30;99.90
4187;DHT22;2107;52.306;10.484;2023-07-29T09:01:04;22.50;99.90
4187;DHT22;2107;52.306;10.484;2023-07-29T09:03:33;22.40;99.90
4187;DHT22;2107;52.306;10.484;2023-07-29T09:06:02;22.00;99.90
4187;DHT22;2107;52.306;10.484;2023-07-29T09:08:29;21.80;99.90
4187;DHT22;2107;52.306;10.484;2023-07-29T09:10:56;21.80;99.90
4187;DHT22;2107;52.306;10.484;2023-07-29T09:13:23;21.70;99.90
4187;DHT22;2107;52.306;10.484;2023-07-29T09:15:54;21.60;99.90
4187;DHT22;2107;52.306;10.484;2023-07-29T09:18:21;21.80;99.90
4187;DHT22;2107;52.306;10.484;2023-07-29T09:20:50;21.60;99.90
4187;DHT22;2107;52.306;10.484;2023-07-29T09:23:17;21.70;99.90
4187;DHT22;2107;52.306;10.484;2023-07-29T09:25:46;21.70;99.90
4187;DHT22;2107;52.306;10.484;2023-07-29T09:28:14;21.70;99.90
4187;DHT22;2107;52.306;10.484;2023-07-29T09:30:44;21.60;99.90
4187;DHT22;2107;52.306;10.484;2023-07-29T09:33:11;21.40;99.90
4187;DHT22;2107;52.306;10.484;2023-07-29T09:35:38;21.40;99.90
4187;DHT22;2107;52.306;10.484;2023-07-29T09:38:07;21.50;99.90
4187;DHT22;2107;52.306;10.484;2023-07-29T09:40:35;21.50;99.90
4187;DHT22;2107;52.306;10.484;2023-07-29T09:43:03;21.50;99.90
4187;DHT22;2107;52.306;10.484;2023-07-29T09:45:32;21.50;99.90
4187;DHT22;2107;52.306;10.484;2023-07-29T09:47:59;21.40;99.90
4187;DHT22;2107;52.306;10.484;2023-07-29T09:50:27;21.40;99.90
4187;DHT22;2107;52.306;10.484;2023-07-29T09:52:55;21.40;99.90
4187;DHT22;2107;52.306;10.484;2023-07-29T09:55:25;21.20;99.90
4187;DHT22;2107;52.306;10.484;2023-07-29T09:57:54;21.50;99.90
4187;DHT22;2107;52.306;10.484;2023-07-29T10:00:22;21.40;99.90
4187;DHT22;2107;52.306;10.484;2023-07-29T10:02:50;21.80;99.90
4187;DHT22;2107;52.306;10.484;2023-07-29T10:05:17;21.90;99.90
4187;DHT22;2107;52.306;10.484;2023-07-29T10:07:45;22.20;99.90
4187;DHT22;2107;52.306;10.484;2023-07-29T10:10:13;21.90;99.90
4187;DHT22;2107;52.306;10.484;2023-07-29T10:12:41;22.10;99.90
4187;DHT22;2107;52.306;10.484;2023-07-29T10:15:09;22.60;99.90
4187;DHT22;2107;52.306;10.484;2023-07-29T10:17:37;23.20;99.90
4187;DHT22;2107;52.306;10.484;2023-07-29T10:20:06;23.60;99.90
4187;DHT22;2107;52.306;10.484;2023-07-29T10:22:36;24.20;99.90
4187;DHT22;2107;52.306;10.484;2023-07-29T10:25:04;24.60;99.90
4187;DHT22;2107;52.306;10.484;2023-07-29T10:27:42;24.20;99.90
4187;DHT22;2107;52.306;10.484;2023-07-29T10:30:11;24.50;99.90
4187;DHT22;2107;52.306;10.484;2023-07-29T10:32:39;24.70;99.90
4187;DHT22;2107;52.306;10.484;2023-07-29T10:35:08;24.40;99.90
4187;DHT22;2107;52.306;10.484;2023-07-29T10:37:35;24.60;99.90
4187;DHT22;2107;52.306;10.484;2023-07-29T10:40:07;24.40;99.90
4187;DHT22;2107;52.306;10.484;2023-07-29T10:42:34;24.70;99.90
4187;DHT22;2107;52.306;10.484;2023-07-29T10:45:17;24.70;99.90
4187;DHT22;2107;52.306;10.484;2023-07-29T10:47:44;24.40;99.90
4187;DHT22;2107;52.306;10.484;2023-07-29T10:50:17;24.60;99.90
4187;DHT22;2107;52.306;10.484;2023-07-29T10:52:49;25.20;99.90
4187;DHT22;2107;52.306;10.484;2023-07-29T10:55:25;25.00;99.90
4187;DHT22;2107;52.306;10.484;2023-07-29T10:57:54;24.90;99.90
4187;DHT22;2107;52.306;10.484;2023-07-29T11:00:31;24.90;99.90
4187;DHT22;2107;52.306;10.484;2023-07-29T11:02:59;25.10;99.90
4187;DHT22;2107;52.306;10.484;2023-07-29T11:05:27;25.30;99.90
4187;DHT22;2107;52.306;10.484;2023-07-29T11:08:19;25.10;99.90
4187;DHT22;2107;52.306;10.484;2023-07-29T11:11:01;26.10;99.90
4187;DHT22;2107;52.306;10.484;2023-07-29T11:13:28;26.00;99.90
4187;DHT22;2107;52.306;10.484;2023-07-29T11:15:58;25.60;99.90
4187;DHT22;2107;52.306;10.484;2023-07-29T11:18:28;25.60;99.90
4187;DHT22;2107;52.306;10.484;2023-07-29T11:20:56;26.10;99.90
4187;DHT22;2107;52.306;10.484;2023-07-29T11:23:31;26.40;99.90
4187;DHT22;2107;52.306;10.484;2023-07-29T11:25:58;25.60;99.90
4187;DHT22;2107;52.306;10.484;2023-07-29T11:28:26;25.60;99.90
4187;DHT22;2107;52.306;10.484;2023-07-29T11:30:54;25.40;99.90
4187;DHT22;2107;52.306;10.484;2023-07-29T11:33:24;25.00;99.90
4187;DHT22;2107;52.306;10.484;2023-07-29T11:35:51;24.20;99.90
4187;DHT22;2107;52.306;10.484;2023-07-29T11:38:19;23.80;99.90
4187;DHT22;2107;52.306;10.484;2023-07-29T11:40:54;23.90;99.90
4187;DHT22;2107;52.306;10.484;2023-07-29T11:43:21;24.60;99.90
4187;DHT22;2107;52.306;10.484;2023-07-29T11:45:48;25.40;99.90
4187;DHT22;2107;52.306;10.484;2023-07-29T11:48:15;25.90;99.90
4187;DHT22;2107;52.306;10.484;2023-07-29T11:50:45;26.60;99.90
4187;DHT22;2107;52.306;10.484;2023-07-29T11:53:12;27.00;99.90
4187;DHT22;2107;52.306;10.484;2023-07-29T11:55:39;26.90;99.90
4187;DHT22;2107;52.306;10.484;2023-07-29T11:58:06;26.70;99.90
4187;DHT22;2107;52.306;10.484;2023-07-29T12:00:33;27.10;99.90
4187;DHT22;2107;52.306;10.484;2023-07-29T12:03:01;27.70;99.90
4187;DHT22;2107;52.306;10.484;2023-07-29T12:05:28;27.60;99.90
4187;DHT22;2107;52.306;10.484;2023-07-29T12:07:57;28.00;99.90
4187;DHT22;2107;52.306;10.484;2023-07-29T12:10:25;28.60;99.90
4187;DHT22;2107;52.306;10.484;2023-07-29T12:12:52;27.90;99.90
4187;DHT22;2107;52.306;10.484;2023-07-29T12:15:25;28.20;99.90
4187;DHT22;2107;52.306;10.484;2023-07-29T12:17:54;28.00;99.90
4187;DHT22;2107;52.306;10.484;2023-07-29T12:20:25;27.60;99.90
4187;DHT22;2107;52.306;10.484;2023-07-29T12:22:52;27.50;99.90
4187;DHT22;2107;52.306;10.484;2023-07-29T12:25:21;27.60;99.90
4187;DHT22;2107;52.306;10.484;2023-07-29T12:27:48;28.00;99.90
4187;DHT22;2107;52.306;10.484;2023-07-29T12:30:15;28.70;99.90
4187;DHT22;2107;52.306;10.484;2023-07-29T12:32:44;29.20;99.90
4187;DHT22;2107;52.306;10.484;2023-07-29T12:35:11;28.90;99.90
4187;DHT22;2107;52.306;10.484;2023-07-29T12:37:38;28.70;99.90
4187;DHT22;2107;52.306;10.484;2023-07-29T12:40:19;28.40;99.90
4187;DHT22;2107;52.306;10.484;2023-07-29T12:42:48;28.20;99.90
4187;DHT22;2107;52.306;10.484;2023-07-29T12:45:15;28.30;99.90
4187;DHT22;2107;52.306;10.484;2023-07-29T12:47:42;28.30;99.90
4187;DHT22;2107;52.306;10.484;2023-07-29T12:50:10;27.70;99.90
4187;DHT22;2107;52.306;10.484;2023-07-29T12:52:36;27.10;99.90
4187;DHT22;2107;52.306;10.484;2023-07-29T12:55:04;26.90;99.90
4187;DHT22;2107;52.306;10.484;2023-07-29T12:57:31;26.90;99.90
4187;DHT22;2107;52.306;10.484;2023-07-29T12:59:59;28.00;99.90
4187;DHT22;2107;52.306;10.484;2023-07-29T13:02:26;28.80;99.90
4187;DHT22;2107;52.306;10.484;2023-07-29T13:04:53;29.10;99.90
4187;DHT22;2107;52.306;10.484;2023-07-29T13:07:19;29.20;99.90
4187;DHT22;2107;52.306;10.484;2023-07-29T13:09:46;29.60;99.90
4187;DHT22;2107;52.306;10.484;2023-07-29T13:12:13;29.50;99.90
4187;DHT22;2107;52.306;10.484;2023-07-29T13:14:40;30.70;99.50
4187;DHT22;2107;52.306;10.484;2023-07-29T13:17:08;30.40;96.50
4187;DHT22;2107;52.306;10.484;2023-07-29T13:19:35;31.20;95.40
4187;DHT22;2107;52.306;10.484;2023-07-29T13:22:02;31.70;93.00
4187;DHT22;2107;52.306;10.484;2023-07-29T13:24:29;33.10;91.90
4187;DHT22;2107;52.306;10.484;2023-07-29T13:26:58;33.10;90.00
4187;DHT22;2107;52.306;10.484;2023-07-29T13:29:24;34.50;86.90
4187;DHT22;2107;52.306;10.484;2023-07-29T13:31:51;34.00;83.10
4187;DHT22;2107;52.306;10.484;2023-07-29T13:34:19;34.60;80.60
4187;DHT22;2107;52.306;10.484;2023-07-29T13:36:47;34.50;76.70
4187;DHT22;2107;52.306;10.484;2023-07-29T13:39:14;32.80;79.90
4187;DHT22;2107;52.306;10.484;2023-07-29T13:41:40;33.60;77.30
4187;DHT22;2107;52.306;10.484;2023-07-29T13:44:07;33.90;72.70
4187;DHT22;2107;52.306;10.484;2023-07-29T13:46:34;34.40;68.20
4187;DHT22;2107;52.306;10.484;2023-07-29T13:49:01;34.20;69.40
4187;DHT22;2107;52.306;10.484;2023-07-29T13:51:30;33.90;66.50
4187;DHT22;2107;52.306;10.484;2023-07-29T13:53:56;34.00;66.90
4187;DHT22;2107;52.306;10.484;2023-07-29T13:56:23;34.70;65.00
4187;DHT22;2107;52.306;10.484;2023-07-29T13:58:50;34.10;65.40
4187;DHT22;2107;52.306;10.484;2023-07-29T14:01:17;32.70;64.80
4187;DHT22;2107;52.306;10.484;2023-07-29T14:03:44;33.70;64.30
4187;DHT22;2107;52.306;10.484;2023-07-29T14:06:11;34.20;62.90
4187;DHT22;2107;52.306;10.484;2023-07-29T14:08:39;34.60;62.10
4187;DHT22;2107;52.306;10.484;2023-07-29T14:11:07;35.80;60.80
4187;DHT22;2107;52.306;10.484;2023-07-29T14:13:34;36.70;57.70
4187;DHT22;2107;52.306;10.484;2023-07-29T14:16:01;37.00;56.20
4187;DHT22;2107;52.306;10.484;2023-07-29T14:18:30;35.10;54.30
4187;DHT22;2107;52.306;10.484;2023-07-29T14:20:57;35.20;54.00
4187;DHT22;2107;52.306;10.484;2023-07-29T14:23:24;36.70;53.40
4187;DHT22;2107;52.306;10.484;2023-07-29T14:25:52;33.90;53.10
4187;DHT22;2107;52.306;10.484;2023-07-29T14:28:19;31.60;55.90
4187;DHT22;2107;52.306;10.484;2023-07-29T14:30:46;31.90;57.40
4187;DHT22;2107;52.306;10.484;2023-07-29T14:33:13;32.80;57.20
4187;DHT22;2107;52.306;10.484;2023-07-29T14:35:40;33.40;55.30
4187;DHT22;2107;52.306;10.484;2023-07-29T14:38:07;33.30;55.00
4187;DHT22;2107;52.306;10.484;2023-07-29T14:40:34;32.60;55.70
4187;DHT22;2107;52.306;10.484;2023-07-29T14:43:02;33.30;56.60
4187;DHT22;2107;52.306;10.484;2023-07-29T14:45:29;33.70;56.10
4187;DHT22;2107;52.306;10.484;2023-07-29T14:47:56;34.00;55.00
4187;DHT22;2107;52.306;10.484;2023-07-29T14:50:23;34.40;55.30
4187;DHT22;2107;52.306;10.484;2023-07-29T14:52:49;34.90;53.00
4187;DHT22;2107;52.306;10.484;2023-07-29T14:55:16;35.00;54.00
4187;DHT22;2107;52.306;10.484;2023-07-29T14:57:44;35.80;54.10
4187;DHT22;2107;52.306;10.484;2023-07-29T15:00:13;35.60;52.60
4187;DHT22;2107;52.306;10.484;2023-07-29T15:02:40;36.80;52.30
4187;DHT22;2107;52.306;10.484;2023-07-29T15:05:07;34.40;53.50
4187;DHT22;2107;52.306;10.484;2023-07-29T15:07:34;31.60;55.10
4187;DHT22;2107;52.306;10.484;2023-07-29T15:10:01;31.50;56.60
4187;DHT22;2107;52.306;10.484;2023-07-29T15:12:28;32.70;55.60
4187;DHT22;2107;52.306;10.484;2023-07-29T15:14:55;33.80;54.80
4187;DHT22;2107;52.306;10.484;2023-07-29T15:17:23;34.60;53.60
4187;DHT22;2107;52.306;10.484;2023-07-29T15:19:50;35.30;53.10
4187;DHT22;2107;52.306;10.484;2023-07-29T15:22:17;34.90;52.40
4187;DHT22;2107;52.306;10.484;2023-07-29T15:24:43;33.30;51.60
4187;DHT22;2107;52.306;10.484;2023-07-29T15:27:12;32.50;55.40
4187;DHT22;2107;52.306;10.484;2023-07-29T15:29:38;30.30;57.70
4187;DHT22;2107;52.306;10.484;2023-07-29T15:32:06;30.50;59.80
4187;DHT22;2107;52.306;10.484;2023-07-29T15:34:34;30.90;58.50
4187;DHT22;2107;52.306;10.484;2023-07-29T15:37:02;30.30;59.50
4187;DHT22;2107;52.306;10.484;2023-07-29T15:39:29;30.10;61.00
4187;DHT22;2107;52.306;10.484;2023-07-29T15:41:56;31.00;60.40
4187;DHT22;2107;52.306;10.484;2023-07-29T15:44:23;31.90;59.70
4187;DHT22;2107;52.306;10.484;2023-07-29T15:46:49;32.60;57.70
4187;DHT22;2107;52.306;10.484;2023-07-29T15:49:17;32.60;57.10
4187;DHT22;2107;52.306;10.484;2023-07-29T15:51:45;32.80;56.70